Milford, OH (45150)

4:20 PM EDT on April 19, 2015 (GMT -0400)
275 Overlook | | Change Station
CLOSE
Current Station
Personal Weather Station
Location: Milford, OH
Elevation: 804 ft
Nearby Weather Stations

Elev 804 ft 39.16 °N, 84.25 °W | Updated 13 seconds ago

Rain
Rain
64.0 °F
Feels Like 64.0 °F
N
1.3
Wind Variable Wind from NE
Gusts 2.5 mph

Today
High -- | Low -- °F
--% Chance of Precip.
Yesterday
High -- | Low -- °F
Precip. -- in
6:54 AM 8:18 PM
New Moon, 2% visible
Pressure 29.57 in
Visibility -9999.0 miles
Clouds Mostly Cloudy 1000 ft
Overcast 1400 ft
Dew Point 62 °F
Humidity 94%
Rainfall 0.27 in
Snow Depth Not available.
UV 1.0 out of 12
Pollen 4.20 out of 12
Air Quality Not available.
Flu Activity Regional
METAR KI69 192014Z AUTO 15007KT 116V176 BKN010 OVC014 17/16 A2957 RMK AO1 P0001 PWINO

More Conditions Fewer Conditions

Pressure 29.57 in
Visibility -9999.0 miles
Clouds Mostly Cloudy 1000 ft
Overcast 1400 ft
Dew Point 62 °F
Humidity 94%
Rainfall 0.27 in
Snow Depth Not available.
UV 1.0 out of 12
Pollen 4.20 out of 12
Air Quality Not available.
Flu Activity Regional
METAR KI69 192014Z AUTO 15007KT 116V176 BKN010 OVC014 17/16 A2957 RMK AO1 P0001 PWINO

More Conditions Fewer Conditions

10-Day Weather Forecast

Almanac

Astronomy

Apr. 19, 2015 Rise Set
Actual Time
Civil Twilight
Nautical Twilight
Astronomical Twilight
Moon
Length of Visible Light
Length of Day
Tomorrow will be .
, % of the Moon is Illuminated

Today's Extremes

State Highs State Lows

Community

WunderPhotos

Upload Photos

1,814,973 photos uploaded!

WunderBlogs® & News

Nearby

Air Quality

  Air Quality AQ Index Pollutant
Not available.

Snow Depth

Station Depth Elevation

Earthquake Activity

City Distance Mag. Time & Date
Minimum magnitude displayed is 2.5.

Coastal Water Temperatures

Place Temperature

Stations

Nearby Weather Stations

Station Location Temp. Windchill Dew Point Humidity Wind Precip. Elev Updated Type